Time;durP1;ratioP1;P1;durP2;ratioP2;P2;SDS_P1;SDS_P2;PMS_P1;PMS_P2;Temp;Humidity;BMP_temperature;BMP_pressure;BME280_temperature;BME280_humidity;BME280_pressure;Samples;Min_cycle;Max_cycle;Signal;HPM_P1;HPM_P2
2023/09/16 00:01:04;;;;;;;;;;;;;;;;;;6340557;28;19920;-88
2023/09/16 00:04:05;;;;;;;;;;;;;;;;;;6387535;27;20000;-87
2023/09/16 00:07:05;;;;;;;;;;;;;;;;;;6390689;27;19911;-88
2023/09/16 00:10:05;;;;;;;;;;;;;;;;;;6370228;27;19914;-88
2023/09/16 00:13:05;;;;;;;;;;;;;;;;;;6388935;27;19900;-89
2023/09/16 00:16:06;;;;;;;;;;;;;;;;;;6388157;27;19971;-86
2023/09/16 00:19:09;;;;;;;;;;;;;;;;;;6398039;27;19904;-89
2023/09/16 00:22:11;;;;;;;;;;;;;;;;;;6373883;27;19970;-89
2023/09/16 00:25:12;;;;;;;;;;;;;;;;;;6364357;27;19911;-88
2023/09/16 00:28:12;;;;;;;;;;;;;;;;;;6385888;27;20266;-88
2023/09/16 00:31:12;;;;;;;;;;;;;;;;;;6378057;27;19912;-86
2023/09/16 00:34:15;;;;;;;;;;;;;;;;;;6384194;27;19936;-88
2023/09/16 00:37:15;;;;;;;;;;;;;;;;;;6383195;27;20353;-88
2023/09/16 00:40:17;;;;;;;;;;;;;;;;;;6355335;27;19912;-88
2023/09/16 00:43:17;;;;;;;;;;;;;;;;;;6364736;27;19907;-88
2023/09/16 00:46:17;;;;;;;;;;;;;;;;;;6384607;27;20372;-84
2023/09/16 00:49:17;;;;;;;;;;;;;;;;;;6378597;27;19916;-87
2023/09/16 00:52:17;;;;;;;;;;;;;;;;;;6380406;27;19895;-88
2023/09/16 00:55:18;;;;;;;;;;;;;;;;;;6391262;27;19915;-86
2023/09/16 00:58:18;;;;;;;;;;;;;;;;;;6389232;27;19911;-87
2023/09/16 01:01:18;;;;;;;;;;;;;;;;;;6384086;27;19926;-86
2023/09/16 01:04:18;;;;;;;;;;;;;;;;;;6396908;27;19965;-87
2023/09/16 01:07:18;;;;;;;;;;;;;;;;;;6376074;27;19916;-87
2023/09/16 01:10:19;;;;;;;;;;;;;;;;;;6390055;27;20366;-87
2023/09/16 01:13:19;;;;;;;;;;;;;;;;;;6352335;28;19911;-86
2023/09/16 01:16:20;;;;;;;;;;;;;;;;;;6340684;28;19919;-85
2023/09/16 01:19:20;;;;;;;;;;;;;;;;;;6364853;27;19992;-85
2023/09/16 01:22:22;;;;;;;;;;;;;;;;;;6374526;27;19911;-86
2023/09/16 01:25:22;;;;;;;;;;;;;;;;;;6356079;27;20345;-86
2023/09/16 01:28:24;;;;;;;;;;;;;;;;;;6354112;27;19911;-86
2023/09/16 01:31:25;;;;;;;;;;;;;;;;;;6367356;27;20026;-86
2023/09/16 01:34:25;;;;;;;;;;;;;;;;;;6356364;27;19911;-85
2023/09/16 01:37:28;;;;;;;;;;;;;;;;;;6355298;27;19915;-86
2023/09/16 01:40:29;;;;;;;;;;;;;;;;;;6371815;27;19936;-87
2023/09/16 01:43:31;;;;;;;;;;;;;;;;;;6373971;27;19912;-87
2023/09/16 01:46:31;;;;;;;;;;;;;;;;;;6374153;27;19919;-86
2023/09/16 01:49:31;;;;;;;;;;;;;;;;;;6360251;27;19911;-87
2023/09/16 01:52:32;;;;;;;;;;;;;;;;;;6379215;27;19957;-86
2023/09/16 01:55:32;;;;;;;;;;;;;;;;;;6358244;27;19920;-86
2023/09/16 01:58:32;;;;;;;;;;;;;;;;;;6376741;27;19934;-85
2023/09/16 02:01:32;;;;;;;;;;;;;;;;;;6374504;27;19918;-86
2023/09/16 02:04:32;;;;;;;;;;;;;;;;;;6349356;28;20385;-86
2023/09/16 02:07:34;;;;;;;;;;;;;;;;;;6353616;28;19908;-86
2023/09/16 02:10:35;;;;;;;;;;;;;;;;;;6348125;28;19998;-86
2023/09/16 02:13:35;;;;;;;;;;;;;;;;;;6332211;28;19918;-86
2023/09/16 02:16:37;;;;;;;;;;;;;;;;;;6346905;28;20003;-85
2023/09/16 02:19:37;;;;;;;;;;;;;;;;;;6348191;28;19915;-85
2023/09/16 02:22:38;;;;;;;;;;;;;;;;;;6336706;28;19916;-86
2023/09/16 02:25:38;;;;;;;;;;;;;;;;;;6314634;28;20328;-86
2023/09/16 02:28:40;;;;;;;;;;;;;;;;;;6339612;28;19912;-86
2023/09/16 02:31:41;;;;;;;;;;;;;;;;;;6354580;28;19912;-82
2023/09/16 02:34:41;;;;;;;;;;;;;;;;;;6348806;28;19911;-84
2023/09/16 02:37:43;;;;;;;;;;;;;;;;;;6343963;28;19919;-84
2023/09/16 02:40:43;;;;;;;;;;;;;;;;;;6347324;28;19912;-85
2023/09/16 02:43:43;;;;;;;;;;;;;;;;;;6330757;28;19916;-85
2023/09/16 02:46:43;;;;;;;;;;;;;;;;;;6319436;28;19969;-84
2023/09/16 02:49:45;;;;;;;;;;;;;;;;;;6327810;28;19916;-83
2023/09/16 02:52:45;;;;;;;;;;;;;;;;;;6347038;28;19907;-84
2023/09/16 02:55:45;;;;;;;;;;;;;;;;;;6346153;28;19935;-83
2023/09/16 02:58:45;;;;;;;;;;;;;;;;;;6347702;28;19912;-82
2023/09/16 03:01:45;;;;;;;;;;;;;;;;;;6328206;28;20049;-81
2023/09/16 03:04:45;;;;;;;;;;;;;;;;;;6299523;28;19924;-78
2023/09/16 03:07:45;;;;;;;;;;;;;;;;;;6299221;28;19978;-79
2023/09/16 03:10:45;;;;;;;;;;;;;;;;;;6314161;28;20378;-81
2023/09/16 03:13:46;;;;;;;;;;;;;;;;;;6309315;28;19966;-82
2023/09/16 03:16:46;;;;;;;;;;;;;;;;;;6304073;28;19916;-80
2023/09/16 03:19:46;;;;;;;;;;;;;;;;;;6303439;28;19916;-79
2023/09/16 03:22:46;;;;;;;;;;;;;;;;;;6300793;28;19974;-80
2023/09/16 03:25:46;;;;;;;;;;;;;;;;;;6300889;28;19940;-80
2023/09/16 03:28:46;;;;;;;;;;;;;;;;;;6282466;28;20057;-80
2023/09/16 03:31:47;;;;;;;;;;;;;;;;;;6312674;28;20290;-80
2023/09/16 03:34:47;;;;;;;;;;;;;;;;;;6286323;28;20019;-80
2023/09/16 03:37:47;;;;;;;;;;;;;;;;;;6324288;28;19916;-80
2023/09/16 03:40:50;;;;;;;;;;;;;;;;;;6325351;28;19961;-79
2023/09/16 03:43:50;;;;;;;;;;;;;;;;;;6318750;28;20290;-80
2023/09/16 03:46:50;;;;;;;;;;;;;;;;;;6298738;28;20359;-81
2023/09/16 03:49:51;;;;;;;;;;;;;;;;;;6300079;28;19912;-80
2023/09/16 03:52:52;;;;;;;;;;;;;;;;;;6321415;28;19920;-79
2023/09/16 03:55:52;;;;;;;;;;;;;;;;;;6317520;28;19920;-77
2023/09/16 03:58:53;;;;;;;;;;;;;;;;;;6323581;28;19915;-78
2023/09/16 04:01:53;;;;;;;;;;;;;;;;;;6322045;27;20389;-79
2023/09/16 04:04:53;;;;;;;;;;;;;;;;;;6367722;27;19922;-78
2023/09/16 04:07:53;;;;;;;;;;;;;;;;;;6350668;27;19946;-79
2023/09/16 04:10:53;;;;;;;;;;;;;;;;;;6374273;27;20003;-79
2023/09/16 04:13:53;;;;;;;;;;;;;;;;;;6368702;27;20103;-79
2023/09/16 04:16:53;;;;;;;;;;;;;;;;;;6350044;27;19976;-79
2023/09/16 04:19:53;;;;;;;;;;;;;;;;;;6375704;27;19965;-78
2023/09/16 04:22:54;;;;;;;;;;;;;;;;;;6357800;27;19918;-78
2023/09/16 04:25:54;;;;;;;;;;;;;;;;;;6354259;27;19941;-78
2023/09/16 04:28:54;;;;;;;;;;;;;;;;;;6373720;27;19991;-78
2023/09/16 04:31:56;;;;;;;;;;;;;;;;;;6372194;27;20375;-78
2023/09/16 04:34:57;;;;;;;;;;;;;;;;;;6373950;27;19916;-76
2023/09/16 04:37:57;;;;;;;;;;;;;;;;;;6350041;27;19933;-79
2023/09/16 04:40:58;;;;;;;;;;;;;;;;;;6372434;27;19931;-78
2023/09/16 04:43:58;;;;;;;;;;;;;;;;;;6370834;27;20330;-78
2023/09/16 04:46:59;;;;;;;;;;;;;;;;;;6370408;27;20011;-78
2023/09/16 04:49:59;;;;;;;;;;;;;;;;;;6361670;27;19955;-77
2023/09/16 04:52:59;;;;;;;;;;;;;;;;;;6365436;27;19931;-78
2023/09/16 04:56:00;;;;;;;;;;;;;;;;;;6368652;27;19923;-78
2023/09/16 04:59:03;;;;;;;;;;;;;;;;;;6349046;28;19915;-78
2023/09/16 05:02:03;;;;;;;;;;;;;;;;;;6366231;27;20400;-78
2023/09/16 05:05:04;;;;;;;;;;;;;;;;;;6374368;27;19911;-78
2023/09/16 05:08:06;;;;;;;;;;;;;;;;;;6376722;27;20313;-78
2023/09/16 05:11:06;;;;;;;;;;;;;;;;;;6364717;27;19992;-78
2023/09/16 05:14:06;;;;;;;;;;;;;;;;;;6368113;27;20404;-76
2023/09/16 05:17:07;;;;;;;;;;;;;;;;;;6371736;27;19916;-78
2023/09/16 05:20:08;;;;;;;;;;;;;;;;;;6363945;27;19916;-78
2023/09/16 05:23:08;;;;;;;;;;;;;;;;;;6364333;27;19989;-77
2023/09/16 05:26:12;;;;;;;;;;;;;;;;;;6384747;27;19912;-79
2023/09/16 05:29:12;;;;;;;;;;;;;;;;;;6382590;27;19997;-78
2023/09/16 05:32:13;;;;;;;;;;;;;;;;;;6375082;27;20010;-76
2023/09/16 05:35:13;;;;;;;;;;;;;;;;;;6372194;27;20004;-76
2023/09/16 05:38:13;;;;;;;;;;;;;;;;;;6364026;27;19968;-77
2023/09/16 05:41:13;;;;;;;;;;;;;;;;;;6377904;27;20027;-77
2023/09/16 05:44:13;;;;;;;;;;;;;;;;;;6349358;27;19980;-79
2023/09/16 05:47:14;;;;;;;;;;;;;;;;;;6371288;27;20432;-76
2023/09/16 05:50:15;;;;;;;;;;;;;;;;;;6370301;27;19918;-77
2023/09/16 05:53:15;;;;;;;;;;;;;;;;;;6372120;27;19907;-77
2023/09/16 05:56:15;;;;;;;;;;;;;;;;;;6367477;27;19911;-76
2023/09/16 05:59:15;;;;;;;;;;;;;;;;;;6348497;27;19911;-76
2023/09/16 06:02:16;;;;;;;;;;;;;;;;;;6355148;27;20319;-77
2023/09/16 06:05:16;;;;;;;;;;;;;;;;;;6308511;28;20370;-76
2023/09/16 06:08:16;;;;;;;;;;;;;;;;;;6286985;28;19915;-75
2023/09/16 06:11:16;;;;;;;;;;;;;;;;;;6309751;28;19956;-77
2023/09/16 06:14:16;;;;;;;;;;;;;;;;;;6277963;28;20086;-77
2023/09/16 06:17:19;;;;;;;;;;;;;;;;;;6299306;28;20415;-76
2023/09/16 06:20:19;;;;;;;;;;;;;;;;;;6316740;28;19950;-75
2023/09/16 06:23:19;;;;;;;;;;;;;;;;;;6318676;28;19969;-75
2023/09/16 06:26:20;;;;;;;;;;;;;;;;;;6306283;28;19920;-76
2023/09/16 06:29:20;;;;;;;;;;;;;;;;;;6308009;28;20429;-77
2023/09/16 06:32:21;;;;;;;;;;;;;;;;;;6321737;28;19912;-77
2023/09/16 06:35:22;;;;;;;;;;;;;;;;;;6305666;28;19915;-78
2023/09/16 06:38:23;;;;;;;;;;;;;;;;;;6329429;28;20279;-78
2023/09/16 06:41:23;;;;;;;;;;;;;;;;;;6328858;28;19916;-78
2023/09/16 06:44:23;;;;;;;;;;;;;;;;;;6324377;28;19951;-78
2023/09/16 06:47:24;;;;;;;;;;;;;;;;;;6296928;28;19920;-78
2023/09/16 06:50:24;;;;;;;;;;;;;;;;;;6297455;28;19913;-78
2023/09/16 06:53:24;;;;;;;;;;;;;;;;;;6300412;28;19999;-79
2023/09/16 06:56:24;;;;;;;;;;;;;;;;;;6325731;28;19919;-79
2023/09/16 06:59:25;;;;;;;;;;;;;;;;;;6317616;28;19912;-77
2023/09/16 07:02:25;;;;;;;;;;;;;;;;;;6322426;28;19927;-80
2023/09/16 07:05:25;;;;;;;;;;;;;;;;;;6323081;28;19912;-77
2023/09/16 07:08:26;;;;;;;;;;;;;;;;;;6304065;28;19995;-77
2023/09/16 07:11:26;;;;;;;;;;;;;;;;;;6323822;28;19932;-78
2023/09/16 07:14:26;;;;;;;;;;;;;;;;;;5967516;28;10000163;-78
2023/09/16 07:17:27;;;;;;;;;;;;;;;;;;6313830;28;19920;-79
2023/09/16 07:20:27;;;;;;;;;;;;;;;;;;6310389;28;19960;-79
2023/09/16 07:23:29;;;;;;;;;;;;;;;;;;6315166;28;19912;-77
2023/09/16 07:26:29;;;;;;;;;;;;;;;;;;6306346;28;19964;-77
2023/09/16 07:29:29;;;;;;;;;;;;;;;;;;6300790;28;19916;-79
2023/09/16 07:32:29;;;;;;;;;;;;;;;;;;6319917;28;19912;-79
2023/09/16 07:35:30;;;;;;;;;;;;;;;;;;6322206;28;19974;-77
2023/09/16 07:38:32;;;;;;;;;;;;;;;;;;6321468;28;19931;-78
2023/09/16 07:41:32;;;;;;;;;;;;;;;;;;6314862;28;19922;-78
2023/09/16 07:44:32;;;;;;;;;;;;;;;;;;6310813;28;19920;-77
2023/09/16 07:47:32;;;;;;;;;;;;;;;;;;6322151;28;19918;-78
2023/09/16 07:50:32;;;;;;;;;;;;;;;;;;6322201;28;19916;-78
2023/09/16 07:53:33;;;;;;;;;;;;;;;;;;6321426;28;19920;-78
2023/09/16 07:56:33;;;;;;;;;;;;;;;;;;6321609;28;19908;-78
2023/09/16 07:59:33;;;;;;;;;;;;;;;;;;6309822;28;20391;-78
2023/09/16 08:02:33;;;;;;;;;;;;;;;;;;6309708;28;19931;-79
2023/09/16 08:05:33;;;;;;;;;;;;;;;;;;6319361;28;20003;-77
2023/09/16 08:08:33;;;;;;;;;;;;;;;;;;5986868;28;9999988;-76
2023/09/16 08:11:33;;;;;;;;;;;;;;;;;;6310584;28;19958;-78
2023/09/16 08:14:33;;;;;;;;;;;;;;;;;;6336834;28;20381;-76
2023/09/16 08:17:34;;;;;;;;;;;;;;;;;;6330662;28;20011;-76
2023/09/16 08:20:35;;;;;;;;;;;;;;;;;;6314493;28;19926;-76
2023/09/16 08:23:35;;;;;;;;;;;;;;;;;;6336188;28;19912;-75
2023/09/16 08:26:35;;;;;;;;;;;;;;;;;;6339303;28;19920;-75
2023/09/16 08:29:35;;;;;;;;;;;;;;;;;;6327067;28;20337;-75
2023/09/16 08:32:38;;;;;;;;;;;;;;;;;;6335699;28;20409;-75
2023/09/16 08:35:39;;;;;;;;;;;;;;;;;;6345816;28;19908;-75
2023/09/16 08:38:40;;;;;;;;;;;;;;;;;;6345526;28;19911;-75
2023/09/16 08:41:40;;;;;;;;;;;;;;;;;;6345531;28;19920;-76
2023/09/16 08:44:40;;;;;;;;;;;;;;;;;;6343511;28;19959;-76
2023/09/16 08:47:40;;;;;;;;;;;;;;;;;;6344661;28;19955;-76
2023/09/16 08:50:40;;;;;;;;;;;;;;;;;;6344034;28;19957;-76
2023/09/16 08:53:41;;;;;;;;;;;;;;;;;;6345192;28;20335;-76
2023/09/16 08:56:41;;;;;;;;;;;;;;;;;;6323100;28;20376;-75
2023/09/16 08:59:41;;;;;;;;;;;;;;;;;;6312506;28;20389;-76
2023/09/16 09:02:41;;;;;;;;;;;;;;;;;;6341614;28;19931;-76
2023/09/16 09:05:42;;;;;;;;;;;;;;;;;;6340783;28;19915;-75
2023/09/16 09:08:42;;;;;;;;;;;;;;;;;;6326715;28;20684;-76
2023/09/16 09:11:43;;;;;;;;;;;;;;;;;;6345559;28;19911;-77
2023/09/16 09:14:43;;;;;;;;;;;;;;;;;;6325046;28;20411;-77
2023/09/16 09:17:44;;;;;;;;;;;;;;;;;;6337618;28;19916;-75
2023/09/16 09:20:44;;;;;;;;;;;;;;;;;;6344997;28;20437;-76
2023/09/16 09:23:44;;;;;;;;;;;;;;;;;;6344545;28;19916;-76
2023/09/16 09:26:44;;;;;;;;;;;;;;;;;;6332755;28;19923;-77
2023/09/16 09:29:44;;;;;;;;;;;;;;;;;;6343691;28;19992;-76
2023/09/16 09:32:45;;;;;;;;;;;;;;;;;;6337835;28;19918;-77
2023/09/16 09:35:45;;;;;;;;;;;;;;;;;;6338246;28;20319;-78
2023/09/16 09:38:46;;;;;;;;;;;;;;;;;;6334569;28;20381;-78
2023/09/16 09:41:46;;;;;;;;;;;;;;;;;;6342453;28;19959;-78
2023/09/16 09:44:47;;;;;;;;;;;;;;;;;;6343380;28;20441;-78
2023/09/16 09:47:47;;;;;;;;;;;;;;;;;;6343895;28;19953;-77
2023/09/16 09:50:48;;;;;;;;;;;;;;;;;;6340207;28;19911;-77
2023/09/16 09:53:49;;;;;;;;;;;;;;;;;;6316300;28;20407;-77
2023/09/16 09:56:49;;;;;;;;;;;;;;;;;;6320298;28;20409;-77
2023/09/16 09:59:50;;;;;;;;;;;;;;;;;;6324317;28;19980;-77
2023/09/16 10:02:50;;;;;;;;;;;;;;;;;;6342397;28;19989;-77
2023/09/16 10:05:51;;;;;;;;;;;;;;;;;;6333060;28;19916;-77
2023/09/16 10:08:51;;;;;;;;;;;;;;;;;;6340495;28;19912;-77
2023/09/16 10:11:51;;;;;;;;;;;;;;;;;;6334530;28;19927;-76
2023/09/16 10:14:51;;;;;;;;;;;;;;;;;;6342491;28;20098;-76
2023/09/16 10:17:52;;;;;;;;;;;;;;;;;;6343414;28;19998;-76
2023/09/16 10:20:52;;;;;;;;;;;;;;;;;;6342901;28;19922;-77
2023/09/16 10:23:52;;;;;;;;;;;;;;;;;;6343510;28;19991;-77
2023/09/16 10:26:53;;;;;;;;;;;;;;;;;;6337357;28;20007;-77
2023/09/16 10:29:53;;;;;;;;;;;;;;;;;;6341885;28;19919;-79
2023/09/16 10:32:53;;;;;;;;;;;;;;;;;;6332997;28;20431;-76
2023/09/16 10:35:56;;;;;;;;;;;;;;;;;;6343733;28;19981;-79
2023/09/16 10:38:56;;;;;;;;;;;;;;;;;;6341236;28;19920;-78
2023/09/16 10:41:57;;;;;;;;;;;;;;;;;;6335504;28;20405;-77
2023/09/16 10:44:57;;;;;;;;;;;;;;;;;;6338078;28;19938;-77
2023/09/16 10:47:59;;;;;;;;;;;;;;;;;;6342247;28;19927;-78
2023/09/16 10:51:00;;;;;;;;;;;;;;;;;;6327434;28;19951;-77
2023/09/16 10:54:00;;;;;;;;;;;;;;;;;;6319588;28;20292;-78
2023/09/16 10:57:00;;;;;;;;;;;;;;;;;;6326603;28;19930;-77
2023/09/16 11:00:00;;;;;;;;;;;;;;;;;;6335653;28;19931;-77
2023/09/16 11:03:00;;;;;;;;;;;;;;;;;;6324327;28;19990;-77
2023/09/16 11:06:02;;;;;;;;;;;;;;;;;;6306332;28;19926;-77
2023/09/16 11:09:03;;;;;;;;;;;;;;;;;;6309753;28;19916;-76
2023/09/16 11:12:03;;;;;;;;;;;;;;;;;;6309403;28;19920;-77
2023/09/16 11:15:04;;;;;;;;;;;;;;;;;;6306140;28;19962;-77
2023/09/16 11:18:04;;;;;;;;;;;;;;;;;;6305601;28;19923;-78
2023/09/16 11:21:05;;;;;;;;;;;;;;;;;;6296186;28;20233;-78
2023/09/16 11:24:05;;;;;;;;;;;;;;;;;;6315543;28;19916;-77
2023/09/16 11:27:05;;;;;;;;;;;;;;;;;;6314547;28;19980;-77
2023/09/16 11:30:05;;;;;;;;;;;;;;;;;;6313015;28;19925;-78
2023/09/16 11:33:08;;;;;;;;;;;;;;;;;;6314024;28;19917;-77
2023/09/16 11:36:08;;;;;;;;;;;;;;;;;;6311843;28;19923;-77
2023/09/16 11:39:12;;;;;;;;;;;;;;;;;;6309526;28;19927;-75
2023/09/16 11:42:18;;;;;;;;;;;;;;;;;;6287868;28;20290;-77
2023/09/16 11:45:18;;;;;;;;;;;;;;;;;;6312122;28;19924;-77
2023/09/16 11:48:20;;;;;;;;;;;;;;;;;;6316474;28;19916;-77
2023/09/16 11:51:21;;;;;;;;;;;;;;;;;;6313508;28;19998;-78
2023/09/16 11:54:21;;;;;;;;;;;;;;;;;;6307346;28;19947;-77
2023/09/16 11:57:21;;;;;;;;;;;;;;;;;;6307580;28;19916;-79
2023/09/16 12:00:22;;;;;;;;;;;;;;;;;;6306963;28;19916;-79
2023/09/16 12:03:22;;;;;;;;;;;;;;;;;;6314123;28;19924;-78
2023/09/16 12:06:25;;;;;;;;;;;;;;;;;;6332341;28;19993;-78
2023/09/16 12:09:27;;;;;;;;;;;;;;;;;;6317683;27;20358;-78
2023/09/16 12:12:27;;;;;;;;;;;;;;;;;;6335079;28;20060;-81
2023/09/16 12:15:27;;;;;;;;;;;;;;;;;;5982514;28;9999855;-81
2023/09/16 12:18:28;;;;;;;;;;;;;;;;;;6337425;28;19981;-78
2023/09/16 12:21:28;;;;;;;;;;;;;;;;;;6335756;28;19912;-77
2023/09/16 12:24:28;;;;;;;;;;;;;;;;;;6346618;28;19914;-77
2023/09/16 12:27:29;;;;;;;;;;;;;;;;;;6325679;28;20011;-78
2023/09/16 12:30:29;;;;;;;;;;;;;;;;;;6344874;28;19911;-78
2023/09/16 12:33:29;;;;;;;;;;;;;;;;;;6344728;28;19908;-78
2023/09/16 12:36:29;;;;;;;;;;;;;;;;;;6345424;28;20415;-78
2023/09/16 12:39:29;;;;;;;;;;;;;;;;;;6327087;28;20370;-77
2023/09/16 12:42:30;;;;;;;;;;;;;;;;;;6347460;28;20369;-79
2023/09/16 12:45:30;;;;;;;;;;;;;;;;;;6342236;28;19916;-77
2023/09/16 12:48:31;;;;;;;;;;;;;;;;;;6326754;28;19963;-77
2023/09/16 12:51:31;;;;;;;;;;;;;;;;;;6344565;28;19916;-78
2023/09/16 12:54:34;;;;;;;;;;;;;;;;;;6345417;28;20035;-77
2023/09/16 12:57:34;;;;;;;;;;;;;;;;;;6345857;28;20006;-81
2023/09/16 13:00:34;;;;;;;;;;;;;;;;;;6345243;28;19964;-77
2023/09/16 13:03:34;;;;;;;;;;;;;;;;;;6332584;28;19920;-77
2023/09/16 13:06:34;;;;;;;;;;;;;;;;;;6301323;28;19912;-77
2023/09/16 13:09:35;;;;;;;;;;;;;;;;;;6320220;28;20472;-77
2023/09/16 13:12:35;;;;;;;;;;;;;;;;;;6319550;28;19916;-78
2023/09/16 13:15:35;;;;;;;;;;;;;;;;;;6317224;28;20019;-77
2023/09/16 13:18:38;;;;;;;;;;;;;;;;;;6311296;28;19939;-77
2023/09/16 13:21:39;;;;;;;;;;;;;;;;;;6318208;28;19912;-77
2023/09/16 13:24:43;;;;;;;;;;;;;;;;;;6321240;28;19911;-78
2023/09/16 13:27:43;;;;;;;;;;;;;;;;;;6317819;28;20421;-79
2023/09/16 13:30:43;;;;;;;;;;;;;;;;;;6314339;28;19923;-79
2023/09/16 13:33:43;;;;;;;;;;;;;;;;;;6278702;28;19922;-79
2023/09/16 13:36:44;;;;;;;;;;;;;;;;;;6314975;28;19923;-79
2023/09/16 13:39:44;;;;;;;;;;;;;;;;;;6322447;28;19908;-79
2023/09/16 13:42:44;;;;;;;;;;;;;;;;;;6322658;28;19908;-79
2023/09/16 13:45:44;;;;;;;;;;;;;;;;;;6322029;28;19935;-79
2023/09/16 13:48:48;;;;;;;;;;;;;;;;;;6321204;28;19911;-79
2023/09/16 13:51:50;;;;;;;;;;;;;;;;;;6320892;28;20332;-78
2023/09/16 13:54:50;;;;;;;;;;;;;;;;;;6320852;28;19916;-78
2023/09/16 13:57:50;;;;;;;;;;;;;;;;;;6321867;28;19934;-78
2023/09/16 14:00:51;;;;;;;;;;;;;;;;;;6321076;28;19908;-78
2023/09/16 14:03:51;;;;;;;;;;;;;;;;;;6335237;28;20362;-78
2023/09/16 14:06:51;;;;;;;;;;;;;;;;;;6347039;28;20426;-78
2023/09/16 14:09:52;;;;;;;;;;;;;;;;;;6346765;28;19919;-77
2023/09/16 14:12:52;;;;;;;;;;;;;;;;;;6321071;28;20010;-78
2023/09/16 14:15:52;;;;;;;;;;;;;;;;;;6299873;28;19912;-78
2023/09/16 14:18:52;;;;;;;;;;;;;;;;;;6331079;28;19914;-79
2023/09/16 14:21:54;;;;;;;;;;;;;;;;;;6342953;28;19916;-79
2023/09/16 14:24:54;;;;;;;;;;;;;;;;;;6347804;28;20422;-79
2023/09/16 14:27:54;;;;;;;;;;;;;;;;;;6323681;28;19950;-78
2023/09/16 14:30:54;;;;;;;;;;;;;;;;;;6343814;28;19914;-77
2023/09/16 14:33:54;;;;;;;;;;;;;;;;;;6328172;28;19915;-76
2023/09/16 14:36:54;;;;;;;;;;;;;;;;;;6346548;28;19916;-77
2023/09/16 14:39:54;;;;;;;;;;;;;;;;;;6346400;28;20374;-77
2023/09/16 14:42:54;;;;;;;;;;;;;;;;;;6326924;28;19916;-79
2023/09/16 14:45:56;;;;;;;;;;;;;;;;;;6327840;28;20012;-80
2023/09/16 14:48:57;;;;;;;;;;;;;;;;;;6332648;28;20271;-78
2023/09/16 14:51:57;;;;;;;;;;;;;;;;;;6315315;28;19916;-79
2023/09/16 14:55:05;;;;;;;;;;;;;;;;;;6324123;28;19920;-80
2023/09/16 14:58:07;;;;;;;;;;;;;;;;;;6334014;28;19920;-79
2023/09/16 15:01:07;;;;;;;;;;;;;;;;;;6331332;28;19920;-80
2023/09/16 15:04:07;;;;;;;;;;;;;;;;;;6315907;28;19928;-80
2023/09/16 15:07:08;;;;;;;;;;;;;;;;;;6305025;28;19930;-80
2023/09/16 15:10:08;;;;;;;;;;;;;;;;;;6308667;28;19920;-78
2023/09/16 15:13:08;;;;;;;;;;;;;;;;;;6297707;28;19921;-82
2023/09/16 15:16:08;;;;;;;;;;;;;;;;;;6297544;28;19913;-82
2023/09/16 15:19:08;;;;;;;;;;;;;;;;;;6319556;28;19912;-81
2023/09/16 15:22:08;;;;;;;;;;;;;;;;;;6323597;28;20015;-82
2023/09/16 15:25:08;;;;;;;;;;;;;;;;;;6314304;28;19923;-80
2023/09/16 15:28:09;;;;;;;;;;;;;;;;;;5611953;28;10000758;-80
2023/09/16 15:31:09;;;;;;;;;;;;;;;;;;6300650;28;19988;-81
2023/09/16 15:34:09;;;;;;;;;;;;;;;;;;6311343;28;19999;-80
2023/09/16 15:37:09;;;;;;;;;;;;;;;;;;6313588;28;19942;-81
2023/09/16 15:40:09;;;;;;;;;;;;;;;;;;6308531;28;19912;-81
2023/09/16 15:43:09;;;;;;;;;;;;;;;;;;6305384;28;19962;-74
2023/09/16 15:46:11;;;;;;;;;;;;;;;;;;6309768;28;19915;-74
2023/09/16 15:49:11;;;;;;;;;;;;;;;;;;6314690;28;19912;-74
2023/09/16 15:52:11;;;;;;;;;;;;;;;;;;6296619;28;19924;-74
2023/09/16 15:55:12;;;;;;;;;;;;;;;;;;6316928;28;19913;-75
2023/09/16 15:58:12;;;;;;;;;;;;;;;;;;6311542;28;19962;-74
2023/09/16 16:01:14;;;;;;;;;;;;;;;;;;6312658;28;20329;-74
2023/09/16 16:04:14;;;;;;;;;;;;;;;;;;6330834;28;19924;-74
2023/09/16 16:07:15;;;;;;;;;;;;;;;;;;6334312;28;19923;-74
2023/09/16 16:10:16;;;;;;;;;;;;;;;;;;6336237;28;19912;-74
2023/09/16 16:13:16;;;;;;;;;;;;;;;;;;6329890;28;20141;-75
2023/09/16 16:16:16;;;;;;;;;;;;;;;;;;6331887;28;19920;-74
2023/09/16 16:19:16;;;;;;;;;;;;;;;;;;6333362;28;19911;-75
2023/09/16 16:22:17;;;;;;;;;;;;;;;;;;6316770;28;19919;-74
2023/09/16 16:25:17;;;;;;;;;;;;;;;;;;6330534;28;19924;-75
2023/09/16 16:28:17;;;;;;;;;;;;;;;;;;6334449;28;20379;-75
2023/09/16 16:31:17;;;;;;;;;;;;;;;;;;6330575;28;19920;-74
2023/09/16 16:34:17;;;;;;;;;;;;;;;;;;6330626;28;20296;-76
2023/09/16 16:37:17;;;;;;;;;;;;;;;;;;6336702;28;19927;-75
2023/09/16 16:40:18;;;;;;;;;;;;;;;;;;6334856;28;19947;-75
2023/09/16 16:43:18;;;;;;;;;;;;;;;;;;6331591;28;19996;-76
2023/09/16 16:46:18;;;;;;;;;;;;;;;;;;6325161;28;20024;-76
2023/09/16 16:49:18;;;;;;;;;;;;;;;;;;6337219;28;20060;-76
2023/09/16 16:52:18;;;;;;;;;;;;;;;;;;6330809;28;19922;-71
2023/09/16 16:55:18;;;;;;;;;;;;;;;;;;6327772;28;19923;-73
2023/09/16 16:58:18;;;;;;;;;;;;;;;;;;6329524;28;19996;-72
2023/09/16 17:01:23;;;;;;;;;;;;;;;;;;6327796;28;19924;-72
2023/09/16 17:04:23;;;;;;;;;;;;;;;;;;6306079;28;20220;-73
2023/09/16 17:07:24;;;;;;;;;;;;;;;;;;6301822;28;19920;-72
2023/09/16 17:10:24;;;;;;;;;;;;;;;;;;6308889;28;19912;-72
2023/09/16 17:13:24;;;;;;;;;;;;;;;;;;6315356;28;19913;-73
2023/09/16 17:16:24;;;;;;;;;;;;;;;;;;6301128;28;19920;-72
2023/09/16 17:19:24;;;;;;;;;;;;;;;;;;6303858;28;19927;-72
2023/09/16 17:22:24;;;;;;;;;;;;;;;;;;6302678;28;19954;-72
2023/09/16 17:25:24;;;;;;;;;;;;;;;;;;6304343;28;19924;-72
2023/09/16 17:28:24;;;;;;;;;;;;;;;;;;5962078;28;9999717;-72
2023/09/16 17:31:27;;;;;;;;;;;;;;;;;;6318400;28;19912;-72
2023/09/16 17:34:27;;;;;;;;;;;;;;;;;;6322162;28;19908;-73
2023/09/16 17:37:28;;;;;;;;;;;;;;;;;;6317976;28;20385;-72
2023/09/16 17:40:28;;;;;;;;;;;;;;;;;;6319888;28;19916;-72
2023/09/16 17:43:28;;;;;;;;;;;;;;;;;;6302279;28;19916;-72
2023/09/16 17:46:28;;;;;;;;;;;;;;;;;;6303389;28;19993;-73
2023/09/16 17:49:28;;;;;;;;;;;;;;;;;;6304648;28;20358;-73
2023/09/16 17:52:28;;;;;;;;;;;;;;;;;;6304521;28;19999;-72
2023/09/16 17:55:29;;;;;;;;;;;;;;;;;;6299654;28;19922;-72
2023/09/16 17:58:33;;;;;;;;;;;;;;;;;;6305875;28;19912;-73
2023/09/16 18:01:33;;;;;;;;;;;;;;;;;;6304561;28;20756;-72
2023/09/16 18:04:34;;;;;;;;;;;;;;;;;;6302417;28;20417;-73
2023/09/16 18:07:34;;;;;;;;;;;;;;;;;;6305993;28;20504;-73
2023/09/16 18:10:38;;;;;;;;;;;;;;;;;;6306789;28;19939;-74
2023/09/16 18:13:38;;;;;;;;;;;;;;;;;;6289960;28;19920;-72
2023/09/16 18:16:39;;;;;;;;;;;;;;;;;;6310256;28;20255;-73
2023/09/16 18:19:39;;;;;;;;;;;;;;;;;;6311192;28;19977;-72
2023/09/16 18:22:39;;;;;;;;;;;;;;;;;;6314258;28;19912;-72
2023/09/16 18:25:39;;;;;;;;;;;;;;;;;;6302837;28;19919;-72
2023/09/16 18:28:40;;;;;;;;;;;;;;;;;;6297379;28;19982;-72
2023/09/16 18:31:40;;;;;;;;;;;;;;;;;;5944972;28;10000420;-72
2023/09/16 18:34:40;;;;;;;;;;;;;;;;;;6302398;28;20377;-72
2023/09/16 18:37:40;;;;;;;;;;;;;;;;;;6299047;28;19923;-72
2023/09/16 18:40:40;;;;;;;;;;;;;;;;;;6297594;28;20018;-72
2023/09/16 18:43:41;;;;;;;;;;;;;;;;;;6298883;28;19912;-72
2023/09/16 18:46:41;;;;;;;;;;;;;;;;;;6299825;28;20003;-73
2023/09/16 18:49:41;;;;;;;;;;;;;;;;;;6300112;28;20016;-72
2023/09/16 18:52:42;;;;;;;;;;;;;;;;;;6302824;28;19920;-72
2023/09/16 18:55:44;;;;;;;;;;;;;;;;;;6308245;28;19923;-72
2023/09/16 18:58:44;;;;;;;;;;;;;;;;;;6305946;28;19912;-72
2023/09/16 19:01:44;;;;;;;;;;;;;;;;;;6289243;28;20392;-73
2023/09/16 19:04:44;;;;;;;;;;;;;;;;;;6308861;28;19923;-72
2023/09/16 19:07:44;;;;;;;;;;;;;;;;;;6329324;28;20006;-72
2023/09/16 19:10:45;;;;;;;;;;;;;;;;;;6327210;28;19912;-72
2023/09/16 19:13:45;;;;;;;;;;;;;;;;;;6331008;28;20079;-72
2023/09/16 19:16:45;;;;;;;;;;;;;;;;;;6309834;28;20337;-73
2023/09/16 19:19:46;;;;;;;;;;;;;;;;;;6329871;28;20008;-72
2023/09/16 19:22:46;;;;;;;;;;;;;;;;;;6324857;28;19960;-72
2023/09/16 19:25:46;;;;;;;;;;;;;;;;;;6306583;28;20373;-73
2023/09/16 19:28:46;;;;;;;;;;;;;;;;;;6336829;28;19915;-73
2023/09/16 19:31:46;;;;;;;;;;;;;;;;;;6337749;28;19920;-72
2023/09/16 19:34:46;;;;;;;;;;;;;;;;;;6323357;28;20346;-73
2023/09/16 19:37:47;;;;;;;;;;;;;;;;;;6324013;28;19920;-72
2023/09/16 19:40:47;;;;;;;;;;;;;;;;;;6340435;28;19916;-72
2023/09/16 19:43:47;;;;;;;;;;;;;;;;;;6316350;28;19951;-73
2023/09/16 19:46:47;;;;;;;;;;;;;;;;;;6331540;28;19922;-72
2023/09/16 19:49:47;;;;;;;;;;;;;;;;;;6331483;28;19919;-72
2023/09/16 19:52:48;;;;;;;;;;;;;;;;;;6340488;27;19980;-72
2023/09/16 19:55:48;;;;;;;;;;;;;;;;;;6310389;28;20004;-71
2023/09/16 19:58:49;;;;;;;;;;;;;;;;;;6347585;28;20407;-73
2023/09/16 20:01:49;;;;;;;;;;;;;;;;;;6343232;28;20011;-72
2023/09/16 20:04:51;;;;;;;;;;;;;;;;;;6328237;28;20282;-72
2023/09/16 20:07:51;;;;;;;;;;;;;;;;;;6329250;28;19916;-71
2023/09/16 20:10:51;;;;;;;;;;;;;;;;;;6304877;28;19920;-72
2023/09/16 20:13:51;;;;;;;;;;;;;;;;;;6310351;28;19938;-72
2023/09/16 20:16:51;;;;;;;;;;;;;;;;;;6329101;28;20389;-71
2023/09/16 20:19:53;;;;;;;;;;;;;;;;;;6302363;28;19916;-71
2023/09/16 20:22:53;;;;;;;;;;;;;;;;;;6308792;28;19927;-71
2023/09/16 20:25:58;;;;;;;;;;;;;;;;;;6299366;28;20391;-71
2023/09/16 20:28:58;;;;;;;;;;;;;;;;;;6305681;28;19920;-70